createdAt,value
2024-05-09T00:01:49.226Z,65.55
2024-05-09T00:03:51.064Z,65.86
2024-05-09T00:05:52.829Z,65.77
2024-05-09T00:07:54.618Z,66.02
2024-05-09T00:09:56.255Z,65.86
2024-05-09T00:11:58.135Z,66.00
2024-05-09T00:13:59.951Z,66.65
2024-05-09T00:16:29.039Z,66.68
2024-05-09T00:18:31.101Z,66.68
2024-05-09T00:20:38.276Z,67.17
2024-05-09T00:22:42.488Z,66.50
2024-05-09T00:24:44.125Z,66.72
2024-05-09T00:26:45.822Z,66.10
2024-05-09T00:28:47.531Z,66.40
2024-05-09T00:30:49.143Z,66.19
2024-05-09T00:32:51.059Z,66.17
2024-05-09T00:34:53.027Z,66.33
2024-05-09T00:36:54.662Z,66.30
2024-05-09T00:38:56.392Z,65.89
2024-05-09T00:40:58.112Z,65.96
2024-05-09T00:43:10.206Z,66.22
2024-05-09T00:45:12.058Z,66.47
2024-05-09T00:47:13.805Z,66.54
2024-05-09T00:49:15.594Z,66.83
2024-05-09T00:51:17.770Z,66.45
2024-05-09T00:53:19.691Z,66.26
2024-05-09T00:55:21.477Z,66.20
2024-05-09T00:57:24.228Z,66.32
2024-05-09T00:59:26.953Z,67.01
2024-05-09T01:01:30.101Z,67.30
2024-05-09T01:03:31.965Z,66.96
2024-05-09T01:05:35.069Z,67.30
2024-05-09T01:07:37.556Z,67.66
2024-05-09T01:09:39.219Z,67.67
2024-05-09T01:11:41.211Z,67.88
2024-05-09T01:13:44.969Z,67.43
2024-05-09T01:15:48.245Z,67.79
2024-05-09T01:17:50.164Z,67.83
2024-05-09T01:19:52.014Z,67.77
2024-05-09T01:21:53.706Z,66.93
2024-05-09T01:23:55.446Z,67.26
2024-05-09T01:25:57.101Z,66.83
2024-05-09T01:27:59.010Z,66.87
2024-05-09T01:30:00.778Z,67.00
2024-05-09T01:32:04.721Z,67.20
2024-05-09T01:34:06.474Z,67.56
2024-05-09T01:36:08.446Z,67.53
2024-05-09T01:38:12.875Z,67.40
2024-05-09T01:40:18.665Z,67.57
2024-05-09T01:42:26.492Z,67.05
2024-05-09T01:44:28.327Z,66.95
2024-05-09T01:46:30.206Z,66.82
2024-05-09T01:48:37.346Z,66.48
2024-05-09T01:50:41.936Z,66.61
2024-05-09T01:52:44.864Z,66.72
2024-05-09T01:54:46.522Z,66.49
2024-05-09T01:56:48.312Z,66.85
2024-05-09T01:58:49.966Z,67.02
2024-05-09T02:00:51.685Z,66.50
2024-05-09T02:02:53.851Z,66.56
2024-05-09T02:04:55.935Z,66.59
2024-05-09T02:06:57.607Z,67.24
2024-05-09T02:08:59.284Z,66.99
2024-05-09T02:11:01.190Z,67.28
2024-05-09T02:13:07.714Z,67.27
2024-05-09T02:15:09.469Z,66.70
2024-05-09T02:17:11.294Z,66.54
2024-05-09T02:19:13.266Z,66.15
2024-05-09T02:21:15.138Z,66.71
2024-05-09T02:23:17.399Z,66.26
2024-05-09T02:25:20.939Z,66.53
2024-05-09T02:27:22.649Z,66.59
2024-05-09T02:29:24.462Z,65.88
2024-05-09T02:31:26.214Z,66.08
2024-05-09T02:33:28.210Z,65.83
2024-05-09T02:35:30.135Z,65.70
2024-05-09T02:37:31.870Z,66.02
2024-05-09T02:39:33.854Z,65.87
2024-05-09T02:41:35.650Z,66.47
2024-05-09T02:43:37.392Z,66.87
2024-05-09T02:45:40.225Z,66.92
2024-05-09T02:47:42.408Z,67.26
2024-05-09T02:49:46.574Z,67.76
2024-05-09T02:51:48.451Z,66.78
2024-05-09T02:53:50.213Z,67.52
2024-05-09T02:55:51.910Z,67.00
2024-05-09T02:57:53.601Z,67.43
2024-05-09T02:59:55.280Z,67.01
2024-05-09T03:01:57.034Z,67.69
2024-05-09T03:03:58.932Z,67.49
2024-05-09T03:06:01.736Z,67.58
2024-05-09T03:08:03.698Z,67.39
2024-05-09T03:10:18.033Z,66.90
2024-05-09T03:12:24.175Z,67.45
2024-05-09T03:14:26.064Z,66.92
2024-05-09T03:16:27.943Z,66.86
2024-05-09T03:18:29.767Z,66.93
2024-05-09T03:20:34.851Z,66.71
2024-05-09T03:22:38.273Z,67.13
2024-05-09T03:24:39.984Z,67.08
2024-05-09T03:26:41.764Z,66.93
2024-05-09T03:28:43.821Z,66.76
2024-05-09T03:30:45.523Z,66.75
2024-05-09T03:32:47.296Z,67.05
2024-05-09T03:34:49.205Z,67.03
2024-05-09T03:36:50.964Z,66.96
2024-05-09T03:38:52.674Z,66.13
2024-05-09T03:40:54.469Z,65.92
2024-05-09T03:42:56.253Z,65.68
2024-05-09T03:44:58.018Z,65.92
2024-05-09T03:46:59.902Z,65.78
2024-05-09T03:49:01.829Z,65.91
2024-05-09T03:51:04.063Z,65.59
2024-05-09T03:53:05.852Z,65.78
2024-05-09T03:55:07.772Z,66.10
2024-05-09T03:57:09.427Z,65.95
2024-05-09T03:59:11.181Z,66.20
2024-05-09T04:01:12.956Z,66.12
2024-05-09T04:03:15.061Z,66.26
2024-05-09T04:05:17.025Z,66.31
2024-05-09T04:07:18.818Z,66.44
2024-05-09T04:09:20.522Z,66.36
2024-05-09T04:11:22.352Z,66.69
2024-05-09T04:13:24.150Z,66.40
2024-05-09T04:15:25.841Z,66.41
2024-05-09T04:17:28.299Z,66.76
2024-05-09T04:19:30.297Z,66.92
2024-05-09T04:21:32.090Z,66.53
2024-05-09T04:23:33.945Z,66.71
2024-05-09T04:25:35.921Z,67.03
2024-05-09T04:27:37.623Z,67.39
2024-05-09T04:29:39.941Z,66.93
2024-05-09T04:31:41.705Z,67.76
2024-05-09T04:33:43.753Z,67.15
2024-05-09T04:35:45.937Z,67.50
2024-05-09T04:37:47.674Z,67.57
2024-05-09T04:39:49.421Z,67.44
2024-05-09T04:41:51.243Z,67.84
2024-05-09T04:43:52.971Z,67.90
2024-05-09T04:45:54.689Z,68.07
2024-05-09T04:47:56.646Z,67.57
2024-05-09T04:50:00.879Z,68.32
2024-05-09T04:52:04.685Z,68.57
2024-05-09T04:54:08.469Z,68.53
2024-05-09T04:56:12.408Z,68.76
2024-05-09T04:58:14.323Z,69.47
2024-05-09T05:00:21.855Z,69.31
2024-05-09T05:02:32.925Z,69.06
2024-05-09T05:04:34.789Z,69.41
2024-05-09T05:06:36.575Z,69.17
2024-05-09T05:08:38.479Z,69.13
2024-05-09T05:10:40.813Z,69.10
2024-05-09T05:12:45.572Z,68.87
2024-05-09T05:14:47.355Z,68.92
2024-05-09T05:16:49.133Z,69.59
2024-05-09T05:18:53.256Z,69.01
2024-05-09T05:20:55.892Z,69.06
2024-05-09T05:22:57.833Z,68.79
2024-05-09T05:24:59.531Z,68.85
2024-05-09T05:27:01.311Z,69.06
2024-05-09T05:29:03.115Z,68.80
2024-05-09T05:31:05.018Z,69.32
2024-05-09T05:33:09.897Z,69.50
2024-05-09T05:35:11.768Z,69.34
2024-05-09T05:37:13.660Z,69.57
2024-05-09T05:39:15.421Z,69.55
2024-05-09T05:41:17.240Z,69.88
2024-05-09T05:43:19.341Z,69.97
2024-05-09T05:45:21.296Z,69.60
2024-05-09T05:47:25.004Z,69.74
2024-05-09T05:49:29.587Z,68.90
2024-05-09T05:51:31.499Z,69.00
2024-05-09T05:53:33.581Z,68.35
2024-05-09T05:55:35.876Z,67.64
2024-05-09T05:57:37.741Z,67.71
2024-05-09T05:59:39.469Z,67.17
2024-05-09T06:01:41.285Z,66.97
2024-05-09T06:03:43.360Z,67.41
2024-05-09T06:05:46.948Z,67.26
2024-05-09T06:07:49.035Z,66.55
2024-05-09T06:09:50.895Z,66.96
2024-05-09T06:11:52.772Z,67.40
2024-05-09T06:13:54.680Z,66.63
2024-05-09T06:15:56.657Z,66.35
2024-05-09T06:17:59.034Z,66.59
2024-05-09T06:20:01.148Z,66.10
2024-05-09T06:22:03.854Z,66.04
2024-05-09T06:24:06.735Z,65.93
2024-05-09T06:26:08.742Z,66.10
2024-05-09T06:28:13.967Z,65.47
2024-05-09T06:30:25.683Z,65.13
2024-05-09T06:32:32.797Z,64.87
2024-05-09T06:34:34.887Z,64.64
2024-05-09T06:36:39.024Z,64.42
2024-05-09T06:38:40.997Z,64.74
2024-05-09T06:40:44.121Z,64.32
2024-05-09T06:42:46.598Z,63.72
2024-05-09T06:44:48.482Z,63.46
2024-05-09T06:46:50.382Z,63.54
2024-05-09T06:48:53.045Z,63.12
2024-05-09T06:50:55.435Z,63.62
2024-05-09T06:52:57.400Z,63.80
2024-05-09T06:54:59.417Z,63.89
2024-05-09T06:57:01.368Z,63.12
2024-05-09T06:59:03.643Z,63.45
2024-05-09T07:01:05.710Z,63.34
2024-05-09T07:03:08.574Z,63.70
2024-05-09T07:05:10.738Z,64.16
2024-05-09T07:07:12.909Z,64.25
2024-05-09T07:09:14.758Z,64.10
2024-05-09T07:11:16.828Z,64.02
2024-05-09T07:13:18.954Z,63.73
2024-05-09T07:15:20.943Z,64.23
2024-05-09T07:17:23.054Z,64.77
2024-05-09T07:19:25.155Z,64.16
2024-05-09T07:21:27.057Z,64.42
2024-05-09T07:23:29.267Z,64.22
2024-05-09T07:25:31.481Z,64.36
2024-05-09T07:27:34.664Z,64.41
2024-05-09T07:29:38.679Z,64.56
2024-05-09T07:31:41.189Z,64.74
2024-05-09T07:33:43.536Z,64.33
2024-05-09T07:35:45.744Z,64.40
2024-05-09T07:37:48.422Z,64.46
2024-05-09T07:39:51.286Z,64.42
2024-05-09T07:41:54.128Z,64.39
2024-05-09T07:43:56.633Z,63.75
2024-05-09T07:46:23.059Z,63.86
2024-05-09T07:53:33.066Z,63.32
2024-05-09T07:54:55.861Z,63.28
2024-05-09T07:56:58.312Z,62.82
2024-05-09T07:59:00.716Z,62.92
2024-05-09T08:01:03.457Z,62.95
2024-05-09T08:03:06.171Z,62.56
2024-05-09T08:05:08.399Z,62.34
2024-05-09T08:07:10.704Z,62.10
2024-05-09T08:09:16.926Z,61.96
2024-05-09T08:11:24.207Z,61.86
2024-05-09T08:13:28.730Z,61.80
2024-05-09T08:15:31.241Z,61.24
2024-05-09T08:17:34.011Z,61.34
2024-05-09T08:19:37.941Z,61.09
2024-05-09T08:21:40.037Z,60.61
2024-05-09T08:23:42.323Z,60.89
2024-05-09T08:25:44.866Z,60.74
2024-05-09T08:27:47.046Z,60.42
2024-05-09T08:29:49.460Z,60.31
2024-05-09T08:31:56.198Z,60.07
2024-05-09T08:33:58.831Z,60.19
2024-05-09T08:36:01.195Z,60.10
2024-05-09T08:38:04.657Z,59.92
2024-05-09T08:40:11.178Z,59.46
2024-05-09T08:42:18.924Z,59.60
2024-05-09T08:44:21.678Z,59.24
2024-05-09T08:46:24.656Z,59.14
2024-05-09T08:48:27.078Z,58.44
2024-05-09T08:50:36.430Z,58.13
2024-05-09T08:52:41.574Z,58.14
2024-05-09T08:54:46.300Z,57.98
2024-05-09T08:56:48.617Z,58.03
2024-05-09T08:58:52.336Z,57.47
2024-05-09T09:00:55.221Z,57.26
2024-05-09T09:02:57.623Z,56.84
2024-05-09T09:05:05.782Z,56.29
2024-05-09T09:07:08.280Z,56.09
2024-05-09T09:09:10.650Z,56.34
2024-05-09T09:11:12.825Z,56.05
2024-05-09T09:13:15.768Z,55.29
2024-05-09T09:15:18.527Z,55.13
2024-05-09T09:17:20.885Z,54.74
2024-05-09T09:19:23.796Z,54.74
2024-05-09T09:21:26.084Z,54.10
2024-05-09T09:23:30.379Z,54.27
2024-05-09T09:25:33.050Z,53.96
2024-05-09T09:27:35.336Z,54.22
2024-05-09T09:29:39.730Z,53.69
2024-05-09T09:31:42.366Z,52.12
2024-05-09T09:33:45.544Z,51.71
2024-05-09T09:35:47.656Z,52.37
2024-05-09T09:37:50.919Z,51.49
2024-05-09T09:39:53.450Z,51.15
2024-05-09T09:41:56.790Z,51.69
2024-05-09T09:43:58.994Z,51.55
2024-05-09T09:46:02.322Z,51.26
2024-05-09T09:48:05.385Z,51.03
2024-05-09T09:50:14.193Z,50.84
2024-05-09T09:52:18.975Z,50.70
2024-05-09T09:54:24.092Z,50.38
2024-05-09T09:56:26.565Z,50.07
2024-05-09T09:58:29.648Z,49.26
2024-05-09T10:00:33.890Z,49.02
2024-05-09T10:02:36.227Z,49.01
2024-05-09T10:04:38.820Z,48.77
2024-05-09T10:06:43.201Z,49.16
2024-05-09T10:08:46.994Z,48.49
2024-05-09T10:10:49.234Z,48.20
2024-05-09T10:12:57.158Z,48.16
2024-05-09T10:14:59.346Z,47.49
2024-05-09T10:17:04.393Z,47.78
2024-05-09T10:19:06.662Z,47.58
2024-05-09T10:21:11.991Z,47.93
2024-05-09T10:23:17.144Z,47.20
2024-05-09T10:25:19.701Z,46.49
2024-05-09T10:27:25.043Z,46.44
2024-05-09T10:29:27.174Z,46.16
2024-05-09T10:31:29.843Z,45.64
2024-05-09T10:33:35.026Z,45.32
2024-05-09T10:35:37.174Z,44.95
2024-05-09T10:37:39.763Z,44.89
2024-05-09T10:39:42.274Z,44.90
2024-05-09T10:41:44.201Z,44.50
2024-05-09T10:43:47.571Z,44.25
2024-05-09T10:45:49.783Z,43.84
2024-05-09T10:47:52.243Z,43.98
2024-05-09T10:49:54.559Z,43.78
2024-05-09T10:51:56.541Z,43.51
2024-05-09T10:53:59.537Z,43.33
2024-05-09T10:56:01.996Z,43.20
2024-05-09T10:58:04.119Z,42.67
2024-05-09T11:00:10.174Z,42.48
2024-05-09T11:02:16.378Z,42.21
2024-05-09T11:04:21.196Z,42.46
2024-05-09T11:06:23.799Z,41.92
2024-05-09T11:08:26.083Z,41.78
2024-05-09T11:10:33.728Z,41.66
2024-05-09T11:12:36.965Z,41.54
2024-05-09T11:14:39.631Z,41.57
2024-05-09T11:16:41.888Z,40.45
2024-05-09T11:18:44.538Z,39.94
2024-05-09T11:20:46.997Z,39.84
2024-05-09T11:22:49.588Z,39.52
2024-05-09T11:24:53.309Z,39.00
2024-05-09T11:26:57.197Z,39.22
2024-05-09T11:28:59.403Z,39.44
2024-05-09T11:31:05.511Z,39.17
2024-05-09T11:33:11.316Z,39.10
2024-05-09T11:35:14.127Z,38.91
2024-05-09T11:37:16.235Z,38.88
2024-05-09T11:39:18.873Z,38.42
2024-05-09T11:41:20.921Z,38.17
2024-05-09T11:43:23.019Z,37.53
2024-05-09T11:45:25.857Z,37.74
2024-05-09T11:47:28.014Z,37.09
2024-05-09T11:49:30.322Z,37.29
2024-05-09T11:51:32.664Z,36.67
2024-05-09T11:55:38.524Z,36.25
2024-05-09T11:57:40.865Z,37.06
2024-05-09T11:59:43.769Z,37.36
2024-05-09T12:01:46.641Z,37.32
2024-05-09T12:03:50.257Z,36.96
2024-05-09T12:05:55.821Z,36.99
2024-05-09T12:07:58.376Z,35.89
2024-05-09T12:10:00.829Z,36.12
2024-05-09T12:12:03.507Z,36.16
2024-05-09T12:14:05.774Z,35.43
2024-05-09T12:16:09.082Z,35.13
2024-05-09T12:18:11.450Z,34.65
2024-05-09T12:20:21.446Z,33.93
2024-05-09T12:22:30.748Z,34.50
2024-05-09T12:24:32.817Z,35.38
2024-05-09T12:26:35.034Z,35.38
2024-05-09T12:28:37.377Z,35.81
2024-05-09T12:30:41.037Z,35.74
2024-05-09T12:32:46.312Z,34.94
2024-05-09T12:34:49.004Z,34.45
2024-05-09T12:36:51.174Z,34.84
2024-05-09T12:38:54.530Z,35.05
2024-05-09T12:40:57.727Z,35.07
2024-05-09T12:42:59.918Z,35.03
2024-05-09T12:45:01.901Z,34.63
2024-05-09T12:47:06.178Z,34.64
2024-05-09T12:49:10.918Z,34.79
2024-05-09T12:51:12.992Z,34.70
2024-05-09T12:53:16.244Z,34.59
2024-05-09T12:55:19.851Z,34.09
2024-05-09T12:57:22.394Z,33.61
2024-05-09T12:59:24.477Z,34.11
2024-05-09T13:01:26.910Z,34.20
2024-05-09T13:03:29.266Z,34.23
2024-05-09T13:05:32.508Z,34.52
2024-05-09T13:07:34.548Z,34.58
2024-05-09T13:09:36.700Z,34.27
2024-05-09T13:11:43.347Z,34.61
2024-05-09T13:13:45.338Z,34.53
2024-05-09T13:15:47.794Z,34.24
2024-05-09T13:17:50.342Z,33.79
2024-05-09T13:19:52.509Z,33.38
2024-05-09T13:21:54.953Z,32.88
2024-05-09T13:23:59.253Z,32.48
2024-05-09T13:26:02.682Z,31.91
2024-05-09T13:28:05.252Z,31.32
2024-05-09T13:30:11.902Z,31.39
2024-05-09T13:32:17.105Z,30.79
2024-05-09T13:34:19.530Z,30.52
2024-05-09T13:36:22.500Z,30.74
2024-05-09T13:38:24.921Z,31.07
2024-05-09T13:40:33.005Z,31.05
2024-05-09T13:42:37.952Z,30.88
2024-05-09T13:44:40.246Z,30.83
2024-05-09T13:46:44.766Z,30.82
2024-05-09T13:48:46.995Z,31.21
2024-05-09T13:50:49.342Z,30.64
2024-05-09T13:52:51.773Z,30.99
2024-05-09T13:54:54.000Z,30.53
2024-05-09T13:56:58.587Z,30.32
2024-05-09T13:59:00.781Z,30.89
2024-05-09T14:01:03.175Z,31.29
2024-05-09T14:03:05.661Z,31.33
2024-05-09T14:05:08.265Z,30.26
2024-05-09T14:07:11.635Z,30.76
2024-05-09T14:09:14.156Z,30.29
2024-05-09T14:11:16.217Z,28.50
2024-05-09T14:13:18.496Z,28.28
2024-05-09T14:15:20.659Z,28.34
2024-05-09T14:17:22.969Z,28.51
2024-05-09T14:19:25.579Z,28.29
2024-05-09T14:21:27.985Z,28.22
2024-05-09T14:23:32.437Z,28.71
2024-05-09T14:25:39.891Z,28.13
2024-05-09T14:27:44.009Z,27.29
2024-05-09T14:29:46.276Z,26.72
2024-05-09T14:31:48.447Z,26.09
2024-05-09T14:33:51.052Z,27.42
2024-05-09T14:35:53.802Z,26.60
2024-05-09T14:37:56.015Z,26.47
2024-05-09T14:39:58.749Z,26.33
2024-05-09T14:42:01.078Z,26.70
2024-05-09T14:44:03.136Z,26.78
2024-05-09T14:46:05.478Z,28.40
2024-05-09T14:48:08.032Z,26.56
2024-05-09T14:50:16.800Z,27.06
2024-05-09T14:52:25.839Z,26.54
2024-05-09T14:54:27.862Z,26.76
2024-05-09T14:56:33.273Z,25.65
2024-05-09T14:58:36.033Z,24.81
2024-05-09T15:00:46.383Z,25.00
2024-05-09T15:02:52.275Z,25.39
2024-05-09T15:04:54.889Z,24.97
2024-05-09T15:06:57.418Z,24.99
2024-05-09T15:09:00.146Z,25.20
2024-05-09T15:11:02.702Z,24.27
2024-05-09T15:13:05.838Z,23.76
2024-05-09T15:15:09.418Z,23.91
2024-05-09T15:17:11.584Z,25.17
2024-05-09T15:19:14.267Z,24.68
2024-05-09T15:21:16.701Z,24.47
2024-05-09T15:23:19.059Z,24.34
2024-05-09T15:25:22.386Z,24.46
2024-05-09T15:27:24.697Z,23.92
2024-05-09T15:29:26.839Z,24.44
2024-05-09T15:31:29.909Z,25.04
2024-05-09T15:33:33.030Z,24.48
2024-05-09T15:37:37.595Z,24.96
2024-05-09T15:39:39.906Z,24.87
2024-05-09T15:41:42.129Z,25.47
2024-05-09T15:43:44.602Z,25.38
2024-05-09T15:45:47.490Z,27.24
2024-05-09T15:47:50.055Z,26.14
2024-05-09T15:49:52.530Z,26.36
2024-05-09T15:51:55.086Z,27.47
2024-05-09T15:53:57.259Z,28.34
2024-05-09T15:55:59.661Z,29.94
2024-05-09T15:58:02.916Z,28.41
2024-05-09T16:00:09.830Z,27.70
2024-05-09T16:02:14.575Z,27.51
2024-05-09T16:04:17.122Z,29.90
2024-05-09T16:06:19.526Z,27.27
2024-05-09T16:08:23.079Z,27.64
2024-05-09T16:10:32.152Z,27.54
2024-05-09T16:12:36.279Z,28.44
2024-05-09T16:14:38.650Z,28.61
2024-05-09T16:16:41.237Z,29.29
2024-05-09T16:18:43.573Z,29.43
2024-05-09T16:20:49.412Z,30.74
2024-05-09T16:22:53.478Z,30.20
2024-05-09T16:24:56.679Z,30.04
2024-05-09T16:26:59.154Z,30.04
2024-05-09T16:29:01.539Z,29.81
2024-05-09T16:33:12.461Z,30.33
2024-05-09T16:35:16.925Z,31.09
2024-05-09T16:37:19.412Z,31.52
2024-05-09T16:39:21.587Z,31.04
2024-05-09T16:41:23.792Z,31.17
2024-05-09T16:43:26.354Z,31.80
2024-05-09T16:45:28.870Z,31.08
2024-05-09T16:47:31.719Z,31.17
2024-05-09T16:49:34.740Z,31.54
2024-05-09T16:51:38.238Z,31.61
2024-05-09T16:53:40.949Z,31.22
2024-05-09T16:55:43.092Z,31.54
2024-05-09T16:57:45.392Z,31.38
2024-05-09T16:59:48.110Z,32.14
2024-05-09T17:01:52.551Z,32.29
2024-05-09T17:03:55.006Z,33.09
2024-05-09T17:05:58.132Z,31.71
2024-05-09T17:08:01.442Z,32.46
2024-05-09T17:10:08.245Z,30.60
2024-05-09T17:12:10.940Z,31.35
2024-05-09T17:14:13.731Z,31.82
2024-05-09T17:16:19.225Z,32.05
2024-05-09T17:18:22.408Z,32.73
2024-05-09T17:20:32.201Z,32.07
2024-05-09T17:22:37.857Z,32.29
2024-05-09T17:24:42.148Z,33.16
2024-05-09T17:26:44.786Z,33.08
2024-05-09T17:28:48.053Z,33.54
2024-05-09T17:30:50.467Z,33.21
2024-05-09T17:32:53.440Z,33.30
2024-05-09T17:34:56.039Z,32.83
2024-05-09T17:36:58.784Z,34.04
2024-05-09T17:39:00.986Z,33.90
2024-05-09T17:41:03.319Z,33.90
2024-05-09T17:43:07.675Z,33.55
2024-05-09T17:45:15.642Z,32.80
2024-05-09T17:47:17.795Z,34.19
2024-05-09T17:49:20.182Z,32.08
2024-05-09T17:51:22.988Z,34.54
2024-05-09T17:53:41.131Z,32.97
2024-05-09T17:55:43.590Z,33.69
2024-05-09T17:57:46.007Z,33.72
2024-05-09T17:59:50.542Z,33.62
2024-05-09T18:01:52.816Z,33.51
2024-05-09T18:03:55.534Z,33.69
2024-05-09T18:05:57.838Z,33.73
2024-05-09T18:08:00.257Z,32.98
2024-05-09T18:10:06.081Z,33.42
2024-05-09T18:12:09.859Z,34.63
2024-05-09T18:14:12.029Z,33.75
2024-05-09T18:16:15.028Z,33.73
2024-05-09T18:18:18.109Z,33.49
2024-05-09T18:20:31.916Z,34.27
2024-05-09T18:22:42.169Z,33.72
2024-05-09T18:24:44.495Z,33.22
2024-05-09T18:26:46.435Z,32.95
2024-05-09T18:28:48.577Z,32.73
2024-05-09T18:30:50.728Z,32.71
2024-05-09T18:32:53.035Z,32.61
2024-05-09T18:34:55.205Z,32.51
2024-05-09T18:36:57.514Z,32.82
2024-05-09T18:39:01.726Z,32.78
2024-05-09T18:41:04.506Z,32.86
2024-05-09T18:43:08.591Z,33.51
2024-05-09T18:45:11.339Z,33.08
2024-05-09T18:47:15.350Z,33.73
2024-05-09T18:49:19.192Z,32.91
2024-05-09T18:51:21.488Z,33.15
2024-05-09T18:53:23.553Z,34.29
2024-05-09T18:55:25.608Z,33.05
2024-05-09T18:57:27.454Z,32.56
2024-05-09T18:59:31.571Z,34.31
2024-05-09T19:01:33.827Z,33.01
2024-05-09T19:03:36.376Z,34.51
2024-05-09T19:05:38.930Z,36.13
2024-05-09T19:07:43.665Z,36.05
2024-05-09T19:09:45.769Z,37.43
2024-05-09T19:11:47.597Z,37.42
2024-05-09T19:13:49.742Z,37.74
2024-05-09T19:15:51.826Z,38.01
2024-05-09T19:17:53.803Z,38.60
2024-05-09T19:19:58.182Z,38.88
2024-05-09T19:22:00.150Z,41.99
2024-05-09T19:24:02.165Z,44.96
2024-05-09T19:26:04.407Z,46.25
2024-05-09T19:28:06.704Z,46.99
2024-05-09T19:30:17.447Z,47.33
2024-05-09T19:32:26.479Z,47.90
2024-05-09T19:34:28.506Z,48.52
2024-05-09T19:36:30.579Z,49.02
2024-05-09T19:38:32.560Z,49.41
2024-05-09T19:40:35.649Z,49.88
2024-05-09T19:42:37.991Z,50.19
2024-05-09T19:44:39.982Z,50.40
2024-05-09T19:46:43.804Z,50.70
2024-05-09T19:48:46.047Z,50.56
2024-05-09T19:50:51.579Z,51.20
2024-05-09T19:52:55.114Z,51.34
2024-05-09T19:54:57.053Z,51.90
2024-05-09T19:56:59.099Z,52.51
2024-05-09T19:59:01.019Z,52.29
2024-05-09T20:01:03.308Z,52.44
2024-05-09T20:03:05.680Z,52.94
2024-05-09T20:05:08.029Z,52.87
2024-05-09T20:07:10.301Z,52.84
2024-05-09T20:09:12.196Z,53.21
2024-05-09T20:11:14.844Z,53.34
2024-05-09T20:13:16.812Z,53.53
2024-05-09T20:15:18.764Z,53.53
2024-05-09T20:17:20.582Z,53.60
2024-05-09T20:19:22.547Z,53.60
2024-05-09T20:21:24.879Z,53.42
2024-05-09T20:23:27.317Z,53.41
2024-05-09T20:25:29.123Z,53.41
2024-05-09T20:27:31.247Z,53.19
2024-05-09T20:29:33.282Z,52.66
2024-05-09T20:31:35.120Z,52.13
2024-05-09T20:33:38.049Z,52.34
2024-05-09T20:35:40.130Z,52.67
2024-05-09T20:37:41.978Z,52.43
2024-05-09T20:39:43.830Z,52.62
2024-05-09T20:41:45.721Z,52.73
2024-05-09T20:43:47.727Z,52.85
2024-05-09T20:45:49.778Z,52.54
2024-05-09T20:47:51.824Z,53.14
2024-05-09T20:49:53.797Z,52.71
2024-05-09T20:51:55.786Z,52.04
2024-05-09T20:53:57.687Z,52.54
2024-05-09T20:55:59.448Z,52.33
2024-05-09T20:58:01.408Z,52.31
2024-05-09T21:00:05.764Z,52.38
2024-05-09T21:02:11.431Z,52.48
2024-05-09T21:04:13.929Z,52.39
2024-05-09T21:06:16.442Z,52.23
2024-05-09T21:08:18.313Z,52.37
2024-05-09T21:10:22.898Z,52.68
2024-05-09T21:12:25.344Z,52.64
2024-05-09T21:14:27.214Z,53.35
2024-05-09T21:16:29.130Z,53.56
2024-05-09T21:18:33.313Z,53.68
2024-05-09T21:20:35.525Z,53.95
2024-05-09T21:22:38.058Z,53.89
2024-05-09T21:24:39.892Z,54.06
2024-05-09T21:26:41.763Z,54.06
2024-05-09T21:28:43.603Z,54.39
2024-05-09T21:30:45.562Z,54.39
2024-05-09T21:32:47.675Z,54.19
2024-05-09T21:34:49.607Z,54.86
2024-05-09T21:36:51.574Z,54.32
2024-05-09T21:38:53.472Z,54.44
2024-05-09T21:40:55.608Z,54.74
2024-05-09T21:42:57.497Z,55.24
2024-05-09T21:44:59.320Z,55.03
2024-05-09T21:47:01.246Z,55.32
2024-05-09T21:49:05.604Z,55.26
2024-05-09T21:51:13.466Z,54.92
2024-05-09T21:53:15.474Z,55.09
2024-05-09T21:55:17.252Z,54.99
2024-05-09T21:57:19.127Z,55.01
2024-05-09T21:59:21.124Z,55.35
2024-05-09T22:01:25.061Z,54.80
2024-05-09T22:03:29.807Z,55.25
2024-05-09T22:05:31.905Z,55.11
2024-05-09T22:07:33.898Z,55.05
2024-05-09T22:09:35.894Z,55.15
2024-05-09T22:11:37.836Z,55.32
2024-05-09T22:13:39.702Z,54.97
2024-05-09T22:15:42.062Z,55.44
2024-05-09T22:17:44.167Z,55.60
2024-05-09T22:19:46.398Z,55.04
2024-05-09T22:21:49.324Z,55.57
2024-05-09T22:23:52.627Z,55.19
2024-05-09T22:25:54.453Z,55.17
2024-05-09T22:27:56.227Z,55.40
2024-05-09T22:29:58.049Z,55.95
2024-05-09T22:31:59.950Z,55.85
2024-05-09T22:34:01.823Z,55.71
2024-05-09T22:36:03.764Z,55.33
2024-05-09T22:38:05.888Z,55.47
2024-05-09T22:40:10.705Z,55.70
2024-05-09T22:42:14.276Z,55.60
2024-05-09T22:44:16.119Z,55.46
2024-05-09T22:46:17.939Z,55.53
2024-05-09T22:48:20.160Z,55.25
2024-05-09T22:50:26.834Z,55.44
2024-05-09T22:52:32.567Z,55.08
2024-05-09T22:54:34.385Z,54.80
2024-05-09T22:56:36.151Z,55.24
2024-05-09T22:58:37.895Z,55.60
2024-05-09T23:00:40.116Z,55.08
2024-05-09T23:02:42.120Z,55.06
2024-05-09T23:04:44.084Z,54.81
2024-05-09T23:06:45.862Z,54.70
2024-05-09T23:08:49.846Z,54.64
2024-05-09T23:10:51.633Z,54.44
2024-05-09T23:12:53.480Z,54.13
2024-05-09T23:14:57.645Z,53.68
2024-05-09T23:16:59.446Z,52.92
2024-05-09T23:19:01.333Z,52.57
2024-05-09T23:21:03.338Z,52.71
2024-05-09T23:23:05.666Z,52.54
2024-05-09T23:25:07.763Z,52.41
2024-05-09T23:27:09.593Z,53.00
2024-05-09T23:29:11.361Z,52.55
2024-05-09T23:31:13.250Z,52.64
2024-05-09T23:33:15.171Z,51.66
2024-05-09T23:35:16.961Z,51.81
2024-05-09T23:37:18.952Z,51.60
2024-05-09T23:39:20.797Z,51.07
2024-05-09T23:41:24.764Z,51.23
2024-05-09T23:43:26.641Z,51.19
2024-05-09T23:45:28.491Z,51.42
2024-05-09T23:47:30.397Z,51.40
2024-05-09T23:49:32.369Z,50.67
2024-05-09T23:51:34.558Z,50.27
2024-05-09T23:53:36.337Z,50.01
2024-05-09T23:55:38.364Z,50.19
2024-05-09T23:57:41.269Z,49.89
2024-05-09T23:59:43.039Z,49.82
